Nautilus — ISPC — position and weather

sailwx.info

Track history (hours):
 
Tides and Currents Weather Stations Pressure Air Temp Water Temp Dewpoint Dewpoint Depression Visibility Wind Speed Wind Dir Waves Ship Positions

Nautilus

Last reported at 2014-Sep-18 11:34 UTC. Time now 2014-Sep-18 11:44 UTC.
Position N 42°49' E 010°12'.

Length 25 m.

Type: Passenger vessel. MMSI: 247205700.

Date/timePositionNaut miles runAvg speedWind from/ knotsBaromVisibWave heightAir tempDewpointWater temp
2014-Sep-18 11:34N 42°49' E 010°12'0 0.0
2014-Sep-18 10:34N 42°49' E 010°12'0 0.0
2014-Sep-18 09:33N 42°49' E 010°12'0 0.0
2014-Sep-18 08:34N 42°49' E 010°12'0 0.0
2014-Sep-18 07:33N 42°49' E 010°12'0 0.0
2014-Sep-18 06:34N 42°49' E 010°12'0 0.0
2014-Sep-18 05:33N 42°49' E 010°12'0 0.0
2014-Sep-18 04:33N 42°49' E 010°12'0 0.0
2014-Sep-18 03:32N 42°49' E 010°12'0 0.0
2014-Sep-18 02:33N 42°49' E 010°12'0 0.0
2014-Sep-18 01:34N 42°49' E 010°12'0 0.0
2014-Sep-18 00:27N 42°49' E 010°12'0 0.0
2014-Sep-17 21:32N 42°49' E 010°12'0 0.0
2014-Sep-17 19:19N 42°49' E 010°12'0 0.0
2014-Sep-17 18:33N 42°49' E 010°12'0 0.0
2014-Sep-17 17:32N 42°49' E 010°12'0 0.0
2014-Sep-17 16:34N 42°49' E 010°12'3 2.6
2014-Sep-17 15:34N 42°49' E 010°08'1 0.9
2014-Sep-17 14:06N 42°48' E 010°07'4 6.3
2014-Sep-17 13:31N 42°48' E 010°12'0 0.0
2014-Sep-17 12:33N 42°48' E 010°12'0 0.2
2014-Sep-17 11:33N 42°49' E 010°12'0 0.0
2014-Sep-17 10:32N 42°49' E 010°12'0 0.0
2014-Sep-17 09:33N 42°49' E 010°12'0 0.0
2014-Sep-17 08:34N 42°49' E 010°12'0 0.0
2014-Sep-17 07:33N 42°49' E 010°12'0 0.0
2014-Sep-17 06:32N 42°49' E 010°12'0 0.0
2014-Sep-17 05:33N 42°49' E 010°12'0 0.0
2014-Sep-17 04:32N 42°49' E 010°12'0 0.0
2014-Sep-17 03:33N 42°49' E 010°12'0 0.0
2014-Sep-17 02:33N 42°49' E 010°12'0 0.0
2014-Sep-17 01:33N 42°49' E 010°12'0 0.0
2014-Sep-17 00:34N 42°49' E 010°12'0 0.0
2014-Sep-16 23:32N 42°49' E 010°12'0 0.0
2014-Sep-16 22:33N 42°49' E 010°12'0 0.0
2014-Sep-16 21:33N 42°49' E 010°12'0 0.0
2014-Sep-16 20:33N 42°49' E 010°12'0 0.0
2014-Sep-16 19:34N 42°49' E 010°12'0 0.0
2014-Sep-16 18:33N 42°49' E 010°12'0 0.0
2014-Sep-16 17:33N 42°49' E 010°12'0 0.0
2014-Sep-16 16:27N 42°49' E 010°12'0 0.1
2014-Sep-16 13:32N 42°48' E 010°12'0 0.0
2014-Sep-16 12:33N 42°48' E 010°12'0 0.0
2014-Sep-16 11:33N 42°48' E 010°12'0 0.1
2014-Sep-16 07:13N 42°49' E 010°12'0 0.1
2014-Sep-16 04:32N 42°49' E 010°12'0 0.0
2014-Sep-16 02:05N 42°49' E 010°12'0 0.0
2014-Sep-15 16:14N 42°49' E 010°12'3 4.5
2014-Sep-15 15:29N 42°49' E 010°07'3 1.8
2014-Sep-15 13:33N 42°48' E 010°12'0 0.0
2014-Sep-15 12:32N 42°48' E 010°12'1 0.6
2014-Sep-15 11:31N 42°49' E 010°13'0 0.1
2014-Sep-15 07:11N 42°49' E 010°13'1 1.6
2014-Sep-15 06:33N 42°49' E 010°12'0 0.0
2014-Sep-15 05:34N 42°49' E 010°12'0 0.0
2014-Sep-15 04:34N 42°49' E 010°12'0 0.0
2014-Sep-15 03:33N 42°49' E 010°12'0 0.0
2014-Sep-15 02:33N 42°49' E 010°12'0 0.0
2014-Sep-15 01:33N 42°49' E 010°12'0 0.0
2014-Sep-15 00:34N 42°49' E 010°12'0 0.0
2014-Sep-14 23:33N 42°49' E 010°12'0 0.0
2014-Sep-14 22:33N 42°49' E 010°12'0 0.0
2014-Sep-14 21:34N 42°49' E 010°12'0 0.0
2014-Sep-14 20:33N 42°49' E 010°12'0 0.0
2014-Sep-14 19:34N 42°49' E 010°12'0 0.0
2014-Sep-14 18:33N 42°49' E 010°12'0 0.0
2014-Sep-14 17:34N 42°49' E 010°12'0 0.0
2014-Sep-14 16:33N 42°49' E 010°12'5 3.8
2014-Sep-14 15:11N 42°46' E 010°06'5 3.2
2014-Sep-14 13:34N 42°49' E 010°12'0 0.0
2014-Sep-14 12:33N 42°49' E 010°12'0 0.0
2014-Sep-14 11:31N 42°49' E 010°12'0 0.1
2014-Sep-14 07:03N 42°49' E 010°12'0 0.1
2014-Sep-14 04:11N 42°49' E 010°12'0 0.0
2014-Sep-14 03:19N 42°49' E 010°12'0 0.0
2014-Sep-14 01:12N 42°49' E 010°12'0 0.0
2014-Sep-13 21:24N 42°49' E 010°12'0 0.0
2014-Sep-13 20:30N 42°49' E 010°12'0 0.0
2014-Sep-13 16:26N 42°49' E 010°12'0 0.1
2014-Sep-13 13:32N 42°48' E 010°12'1 0.6
2014-Sep-13 11:30N 42°49' E 010°13'1 0.2
2014-Sep-13 07:10N 42°49' E 010°12'0 0.7
2014-Sep-13 06:33N 42°49' E 010°12'0 0.0
2014-Sep-13 05:34N 42°49' E 010°12'0 0.0
2014-Sep-13 04:33N 42°49' E 010°12'0 0.0
2014-Sep-13 03:34N 42°49' E 010°12'0 0.0
2014-Sep-13 02:33N 42°49' E 010°12'0 0.0
2014-Sep-13 01:33N 42°49' E 010°12'0 0.0
2014-Sep-13 00:33N 42°49' E 010°12'0 0.0
2014-Sep-12 23:33N 42°49' E 010°12'0 0.0
2014-Sep-12 22:34N 42°49' E 010°12'0 0.0
2014-Sep-12 21:33N 42°49' E 010°12'0 0.0
2014-Sep-12 20:33N 42°49' E 010°12'0 0.0
2014-Sep-12 19:33N 42°49' E 010°12'0 0.0
2014-Sep-12 18:33N 42°49' E 010°12'0 0.0
2014-Sep-12 17:33N 42°49' E 010°12'0 0.0
2014-Sep-12 16:33N 42°49' E 010°12'0 0.0
2014-Sep-12 15:34N 42°49' E 010°12'0 0.0
2014-Sep-12 14:34N 42°49' E 010°12'0 0.0
2014-Sep-12 13:34N 42°49' E 010°12'0 0.0
2014-Sep-12 12:33N 42°49' E 010°12'0 0.5
2014-Sep-12 11:32N 42°49' E 010°12'0 0.0
2014-Sep-11 23:07N 42°49' E 010°12'0 0.0
2014-Sep-11 16:16N 42°49' E 010°12'3 3.8
2014-Sep-11 15:34N 42°49' E 010°08'3 1.4
2014-Sep-11 13:33N 42°48' E 010°12'0 0.0
2014-Sep-11 12:33N 42°48' E 010°12'0 0.0
2014-Sep-11 05:04N 42°49' E 010°12'0 0.0
2014-Sep-11 00:07N 42°49' E 010°12'0 0.0
2014-Sep-10 19:28N 42°49' E 010°12'0 0.0
2014-Sep-10 18:20N 42°49' E 010°12'0 0.0
2014-Sep-09 21:22N 42°49' E 010°12'0 0.0
2014-Sep-09 16:34N 42°48' E 010°12'0 0.0
2014-Sep-09 13:33N 42°48' E 010°12'0 0.0
2014-Sep-09 12:33N 42°48' E 010°12'0 0.0
2014-Sep-08 23:31N 42°49' E 010°12'0 0.0
2014-Sep-08 22:31N 42°49' E 010°12'0 0.0
2014-Sep-08 21:33N 42°49' E 010°12'0 0.0
2014-Sep-08 17:23N 42°49' E 010°12'0 0.2
2014-Sep-08 16:29N 42°48' E 010°12'3 1.2
2014-Sep-08 14:06N 42°49' E 010°08'3 5.4
2014-Sep-08 13:33N 42°48' E 010°12'0 0.0
2014-Sep-08 12:33N 42°48' E 010°12'  
Track history (hours):
 
Tides and Currents Weather Stations Pressure Air Temp Water Temp Dewpoint Dewpoint Depression Visibility Wind Speed Wind Dir Waves Ship Positions

Nautilus

Last reported at 2014-Sep-18 11:34 UTC. Time now 2014-Sep-18 11:44 UTC.
Position N 42°49' E 010°12'.

Length 25 m.

Type: Passenger vessel. MMSI: 247205700.

Date/timePositionNaut miles runAvg speedWind from/ knotsBaromVisibWave heightAir tempDewpointWater temp
2014-Sep-18 11:34N 42°49' E 010°12'0 0.0
2014-Sep-18 10:34N 42°49' E 010°12'0 0.0
2014-Sep-18 09:33N 42°49' E 010°12'0 0.0
2014-Sep-18 08:34N 42°49' E 010°12'0 0.0
2014-Sep-18 07:33N 42°49' E 010°12'0 0.0
2014-Sep-18 06:34N 42°49' E 010°12'0 0.0
2014-Sep-18 05:33N 42°49' E 010°12'0 0.0
2014-Sep-18 04:33N 42°49' E 010°12'0 0.0
2014-Sep-18 03:32N 42°49' E 010°12'0 0.0
2014-Sep-18 02:33N 42°49' E 010°12'0 0.0
2014-Sep-18 01:34N 42°49' E 010°12'0 0.0
2014-Sep-18 00:27N 42°49' E 010°12'0 0.0
2014-Sep-17 21:32N 42°49' E 010°12'0 0.0
2014-Sep-17 19:19N 42°49' E 010°12'0 0.0
2014-Sep-17 18:33N 42°49' E 010°12'0 0.0
2014-Sep-17 17:32N 42°49' E 010°12'0 0.0
2014-Sep-17 16:34N 42°49' E 010°12'3 2.6
2014-Sep-17 15:34N 42°49' E 010°08'1 0.9
2014-Sep-17 14:06N 42°48' E 010°07'4 6.3
2014-Sep-17 13:31N 42°48' E 010°12'0 0.0
2014-Sep-17 12:33N 42°48' E 010°12'0 0.2
2014-Sep-17 11:33N 42°49' E 010°12'0 0.0
2014-Sep-17 10:32N 42°49' E 010°12'0 0.0
2014-Sep-17 09:33N 42°49' E 010°12'0 0.0
2014-Sep-17 08:34N 42°49' E 010°12'0 0.0
2014-Sep-17 07:33N 42°49' E 010°12'0 0.0
2014-Sep-17 06:32N 42°49' E 010°12'0 0.0
2014-Sep-17 05:33N 42°49' E 010°12'0 0.0
2014-Sep-17 04:32N 42°49' E 010°12'0 0.0
2014-Sep-17 03:33N 42°49' E 010°12'0 0.0
2014-Sep-17 02:33N 42°49' E 010°12'0 0.0
2014-Sep-17 01:33N 42°49' E 010°12'0 0.0
2014-Sep-17 00:34N 42°49' E 010°12'0 0.0
2014-Sep-16 23:32N 42°49' E 010°12'0 0.0
2014-Sep-16 22:33N 42°49' E 010°12'0 0.0
2014-Sep-16 21:33N 42°49' E 010°12'0 0.0
2014-Sep-16 20:33N 42°49' E 010°12'0 0.0
2014-Sep-16 19:34N 42°49' E 010°12'0 0.0
2014-Sep-16 18:33N 42°49' E 010°12'0 0.0
2014-Sep-16 17:33N 42°49' E 010°12'0 0.0
2014-Sep-16 16:27N 42°49' E 010°12'0 0.1
2014-Sep-16 13:32N 42°48' E 010°12'0 0.0
2014-Sep-16 12:33N 42°48' E 010°12'0 0.0
2014-Sep-16 11:33N 42°48' E 010°12'0 0.1
2014-Sep-16 07:13N 42°49' E 010°12'0 0.1
2014-Sep-16 04:32N 42°49' E 010°12'0 0.0
2014-Sep-16 02:05N 42°49' E 010°12'0 0.0
2014-Sep-15 16:14N 42°49' E 010°12'3 4.5
2014-Sep-15 15:29N 42°49' E 010°07'3 1.8
2014-Sep-15 13:33N 42°48' E 010°12'0 0.0
2014-Sep-15 12:32N 42°48' E 010°12'1 0.6
2014-Sep-15 11:31N 42°49' E 010°13'0 0.1
2014-Sep-15 07:11N 42°49' E 010°13'1 1.6
2014-Sep-15 06:33N 42°49' E 010°12'0 0.0
2014-Sep-15 05:34N 42°49' E 010°12'0 0.0
2014-Sep-15 04:34N 42°49' E 010°12'0 0.0
2014-Sep-15 03:33N 42°49' E 010°12'0 0.0
2014-Sep-15 02:33N 42°49' E 010°12'0 0.0
2014-Sep-15 01:33N 42°49' E 010°12'0 0.0
2014-Sep-15 00:34N 42°49' E 010°12'0 0.0
2014-Sep-14 23:33N 42°49' E 010°12'0 0.0
2014-Sep-14 22:33N 42°49' E 010°12'0 0.0
2014-Sep-14 21:34N 42°49' E 010°12'0 0.0
2014-Sep-14 20:33N 42°49' E 010°12'0 0.0
2014-Sep-14 19:34N 42°49' E 010°12'0 0.0
2014-Sep-14 18:33N 42°49' E 010°12'0 0.0
2014-Sep-14 17:34N 42°49' E 010°12'0 0.0
2014-Sep-14 16:33N 42°49' E 010°12'5 3.8
2014-Sep-14 15:11N 42°46' E 010°06'5 3.2
2014-Sep-14 13:34N 42°49' E 010°12'0 0.0
2014-Sep-14 12:33N 42°49' E 010°12'0 0.0
2014-Sep-14 11:31N 42°49' E 010°12'0 0.1
2014-Sep-14 07:03N 42°49' E 010°12'0 0.1
2014-Sep-14 04:11N 42°49' E 010°12'0 0.0
2014-Sep-14 03:19N 42°49' E 010°12'0 0.0
2014-Sep-14 01:12N 42°49' E 010°12'0 0.0
2014-Sep-13 21:24N 42°49' E 010°12'0 0.0
2014-Sep-13 20:30N 42°49' E 010°12'0 0.0
2014-Sep-13 16:26N 42°49' E 010°12'0 0.1
2014-Sep-13 13:32N 42°48' E 010°12'1 0.6
2014-Sep-13 11:30N 42°49' E 010°13'1 0.2
2014-Sep-13 07:10N 42°49' E 010°12'0 0.7
2014-Sep-13 06:33N 42°49' E 010°12'0 0.0
2014-Sep-13 05:34N 42°49' E 010°12'0 0.0
2014-Sep-13 04:33N 42°49' E 010°12'0 0.0
2014-Sep-13 03:34N 42°49' E 010°12'0 0.0
2014-Sep-13 02:33N 42°49' E 010°12'0 0.0
2014-Sep-13 01:33N 42°49' E 010°12'0 0.0
2014-Sep-13 00:33N 42°49' E 010°12'0 0.0
2014-Sep-12 23:33N 42°49' E 010°12'0 0.0
2014-Sep-12 22:34N 42°49' E 010°12'0 0.0
2014-Sep-12 21:33N 42°49' E 010°12'0 0.0
2014-Sep-12 20:33N 42°49' E 010°12'0 0.0
2014-Sep-12 19:33N 42°49' E 010°12'0 0.0
2014-Sep-12 18:33N 42°49' E 010°12'0 0.0
2014-Sep-12 17:33N 42°49' E 010°12'0 0.0
2014-Sep-12 16:33N 42°49' E 010°12'0 0.0
2014-Sep-12 15:34N 42°49' E 010°12'0 0.0
2014-Sep-12 14:34N 42°49' E 010°12'0 0.0
2014-Sep-12 13:34N 42°49' E 010°12'0 0.0
2014-Sep-12 12:33N 42°49' E 010°12'0 0.5
2014-Sep-12 11:32N 42°49' E 010°12'0 0.0
2014-Sep-11 23:07N 42°49' E 010°12'0 0.0
2014-Sep-11 16:16N 42°49' E 010°12'3 3.8
2014-Sep-11 15:34N 42°49' E 010°08'3 1.4
2014-Sep-11 13:33N 42°48' E 010°12'0 0.0
2014-Sep-11 12:33N 42°48' E 010°12'0 0.0
2014-Sep-11 05:04N 42°49' E 010°12'0 0.0
2014-Sep-11 00:07N 42°49' E 010°12'0 0.0
2014-Sep-10 19:28N 42°49' E 010°12'0 0.0
2014-Sep-10 18:20N 42°49' E 010°12'0 0.0
2014-Sep-09 21:22N 42°49' E 010°12'0 0.0
2014-Sep-09 16:34N 42°48' E 010°12'0 0.0
2014-Sep-09 13:33N 42°48' E 010°12'0 0.0
2014-Sep-09 12:33N 42°48' E 010°12'0 0.0
2014-Sep-08 23:31N 42°49' E 010°12'0 0.0
2014-Sep-08 22:31N 42°49' E 010°12'0 0.0
2014-Sep-08 21:33N 42°49' E 010°12'0 0.0
2014-Sep-08 17:23N 42°49' E 010°12'0 0.2
2014-Sep-08 16:29N 42°48' E 010°12'3 1.2
2014-Sep-08 14:06N 42°49' E 010°08'3 5.4
2014-Sep-08 13:33N 42°48' E 010°12'0 0.0
2014-Sep-08 12:33N 42°48' E 010°12'  

Dump ship's entire track history